createdAt,value
2018-06-23T00:01:58.923Z,1.40
2018-06-23T00:04:29.782Z,1.77
2018-06-23T00:07:00.915Z,1.50
2018-06-23T00:09:30.210Z,1.60
2018-06-23T00:11:59.875Z,1.30
2018-06-23T00:16:58.430Z,1.47
2018-06-23T00:19:28.235Z,1.53
2018-06-23T00:21:58.735Z,1.30
2018-06-23T00:24:28.833Z,1.27
2018-06-23T00:26:59.276Z,1.60
2018-06-23T00:29:28.686Z,1.50
2018-06-23T00:31:58.066Z,1.63
2018-06-23T00:34:28.034Z,1.60
2018-06-23T00:37:01.504Z,0.97
2018-06-23T00:39:32.020Z,1.30
2018-06-23T00:42:02.775Z,1.20
2018-06-23T00:44:32.463Z,1.37
2018-06-23T00:47:03.946Z,1.20
2018-06-23T00:49:34.191Z,1.37
2018-06-23T00:52:04.297Z,1.60
2018-06-23T00:54:34.807Z,1.37
2018-06-23T00:57:04.320Z,1.40
2018-06-23T00:59:46.570Z,1.30
2018-06-23T01:02:15.835Z,1.50
2018-06-23T01:04:46.408Z,1.27
2018-06-23T01:07:16.623Z,1.77
2018-06-23T01:09:46.437Z,1.27
2018-06-23T01:12:17.110Z,1.43
2018-06-23T01:14:47.259Z,1.10
2018-06-23T01:17:18.838Z,1.40
2018-06-23T01:19:48.754Z,1.40
2018-06-23T01:22:18.918Z,1.50
2018-06-23T01:24:48.910Z,1.23
2018-06-23T01:27:19.006Z,1.73
2018-06-23T01:29:49.623Z,1.30
2018-06-23T01:32:19.185Z,1.17
2018-06-23T01:34:48.754Z,1.23
2018-06-23T01:37:20.106Z,1.33
2018-06-23T01:39:50.455Z,1.40
2018-06-23T01:42:20.529Z,1.53
2018-06-23T01:44:50.334Z,1.23
2018-06-23T01:47:19.726Z,1.30
2018-06-23T01:49:49.228Z,1.37
2018-06-23T01:52:19.214Z,1.20
2018-06-23T01:54:49.195Z,1.30
2018-06-23T01:57:19.219Z,1.80
2018-06-23T01:59:49.390Z,1.30
2018-06-23T02:02:18.673Z,1.30
2018-06-23T02:04:48.284Z,1.07
2018-06-23T02:07:17.567Z,1.33
2018-06-23T02:09:46.837Z,1.30
2018-06-23T02:12:17.376Z,1.40
2018-06-23T02:14:52.891Z,1.40
2018-06-23T02:17:29.655Z,1.50
2018-06-23T02:20:04.390Z,1.37
2018-06-23T02:22:39.703Z,1.80
2018-06-23T02:25:15.226Z,1.50
2018-06-23T02:27:51.300Z,1.20
2018-06-23T02:30:31.791Z,1.30
2018-06-23T02:33:06.818Z,1.30
2018-06-23T02:35:38.399Z,1.37
2018-06-23T02:38:08.257Z,1.37
2018-06-23T02:40:38.007Z,1.43
2018-06-23T02:43:07.561Z,1.13
2018-06-23T02:45:37.431Z,1.07
2018-06-23T02:48:08.102Z,1.30
2018-06-23T02:50:38.402Z,1.30
2018-06-23T02:53:10.043Z,1.30
2018-06-23T02:55:40.120Z,1.20
2018-06-23T02:58:10.979Z,1.40
2018-06-23T03:00:40.258Z,1.27
2018-06-23T03:03:10.551Z,1.20
2018-06-23T03:05:40.255Z,1.00
2018-06-23T03:08:10.288Z,1.33
2018-06-23T03:10:40.810Z,1.30
2018-06-23T03:13:10.643Z,1.10
2018-06-23T03:15:41.591Z,1.50
2018-06-23T03:18:11.408Z,1.20
2018-06-23T03:20:41.625Z,1.60
2018-06-23T03:23:12.403Z,1.57
2018-06-23T03:25:41.919Z,1.13
2018-06-23T03:28:11.430Z,1.47
2018-06-23T03:30:41.584Z,1.20
2018-06-23T03:33:11.014Z,1.37
2018-06-23T03:35:40.522Z,1.50
2018-06-23T03:38:10.504Z,1.47
2018-06-23T03:40:39.896Z,1.20
2018-06-23T03:43:09.511Z,1.10
2018-06-23T03:45:39.101Z,1.57
2018-06-23T03:48:10.006Z,1.23
2018-06-23T03:50:40.454Z,1.10
2018-06-23T03:53:10.328Z,1.37
2018-06-23T03:55:39.931Z,1.50
2018-06-23T03:58:09.913Z,1.30
2018-06-23T04:00:44.213Z,1.37
2018-06-23T04:03:14.304Z,1.40
2018-06-23T04:05:47.750Z,1.10
2018-06-23T04:08:18.238Z,1.17
2018-06-23T04:10:47.950Z,1.40
2018-06-23T04:13:17.471Z,1.10
2018-06-23T04:15:48.235Z,1.40
2018-06-23T04:18:18.194Z,1.40
2018-06-23T04:20:48.167Z,1.30
2018-06-23T04:23:19.042Z,1.37
2018-06-23T04:25:49.678Z,1.33
2018-06-23T04:28:20.265Z,1.40
2018-06-23T04:30:50.881Z,1.50
2018-06-23T04:33:21.913Z,1.10
2018-06-23T04:35:51.686Z,1.10
2018-06-23T04:38:22.483Z,1.30
2018-06-23T04:40:52.773Z,1.40
2018-06-23T04:43:22.499Z,1.57
2018-06-23T04:45:52.954Z,1.47
2018-06-23T04:48:22.495Z,1.20
2018-06-23T04:50:53.579Z,1.83
2018-06-23T04:53:23.200Z,1.40
2018-06-23T04:55:53.923Z,1.90
2018-06-23T04:58:23.547Z,2.00
2018-06-23T05:00:54.083Z,1.97
2018-06-23T05:03:24.518Z,1.57
2018-06-23T05:05:53.813Z,1.80
2018-06-23T05:08:23.435Z,1.90
2018-06-23T05:10:53.398Z,2.30
2018-06-23T05:13:23.402Z,1.93
2018-06-23T05:15:53.522Z,2.47
2018-06-23T05:18:23.742Z,1.77
2018-06-23T05:20:55.080Z,1.80
2018-06-23T05:23:25.269Z,1.80
2018-06-23T05:25:54.601Z,2.33
2018-06-23T05:28:24.681Z,2.20
2018-06-23T05:30:54.683Z,1.80
2018-06-23T05:33:25.367Z,2.30
2018-06-23T05:35:55.574Z,2.10
2018-06-23T05:38:26.433Z,2.30
2018-06-23T05:40:56.414Z,2.13
2018-06-23T05:43:27.408Z,2.17
2018-06-23T05:45:56.982Z,1.87
2018-06-23T05:48:26.830Z,2.53
2018-06-23T05:50:57.572Z,2.00
2018-06-23T05:53:28.314Z,2.23
2018-06-23T05:55:58.077Z,2.37
2018-06-23T05:58:33.627Z,2.57
2018-06-23T06:01:05.074Z,2.33
2018-06-23T06:03:35.070Z,2.20
2018-06-23T06:06:04.346Z,2.60
2018-06-23T06:08:35.490Z,2.60
2018-06-23T06:11:06.330Z,2.70
2018-06-23T06:13:37.054Z,2.40
2018-06-23T06:16:07.893Z,2.17
2018-06-23T06:18:37.937Z,2.07
2018-06-23T06:21:08.097Z,2.93
2018-06-23T06:23:38.325Z,2.50
2018-06-23T06:26:07.582Z,2.17
2018-06-23T06:28:37.362Z,2.33
2018-06-23T06:31:07.693Z,2.67
2018-06-23T06:33:38.047Z,2.80
2018-06-23T06:36:08.686Z,2.30
2018-06-23T06:38:39.318Z,2.50
2018-06-23T06:41:09.582Z,2.93
2018-06-23T06:43:40.186Z,2.67
2018-06-23T06:46:09.454Z,2.27
2018-06-23T06:48:39.586Z,2.83
2018-06-23T06:51:08.843Z,3.00
2018-06-23T06:53:38.495Z,2.93
2018-06-23T06:56:09.362Z,2.60
2018-06-23T06:58:41.225Z,2.87
2018-06-23T07:01:10.630Z,2.93
2018-06-23T07:03:39.927Z,2.60
2018-06-23T07:06:10.174Z,2.50
2018-06-23T07:08:39.449Z,3.10
2018-06-23T07:11:09.167Z,3.37
2018-06-23T07:13:39.550Z,2.50
2018-06-23T07:16:10.719Z,3.20
2018-06-23T07:18:40.239Z,3.07
2018-06-23T07:21:09.517Z,2.60
2018-06-23T07:23:39.962Z,2.93
2018-06-23T07:26:10.588Z,2.57
2018-06-23T07:28:41.098Z,2.63
2018-06-23T07:31:13.596Z,3.13
2018-06-23T07:33:43.946Z,3.50
2018-06-23T07:36:14.180Z,2.53
2018-06-23T07:38:44.519Z,3.07
2018-06-23T07:41:14.741Z,3.50
2018-06-23T07:43:44.570Z,3.67
2018-06-23T07:46:15.156Z,3.63
2018-06-23T07:48:44.993Z,3.40
2018-06-23T07:51:15.921Z,3.10
2018-06-23T07:53:46.606Z,2.50
2018-06-23T07:56:16.910Z,3.07
2018-06-23T07:58:46.961Z,2.87
2018-06-23T08:01:17.511Z,3.10
2018-06-23T08:03:47.150Z,2.97
2018-06-23T08:06:18.540Z,3.20
2018-06-23T08:08:48.403Z,3.00
2018-06-23T08:11:17.703Z,3.30
2018-06-23T08:13:48.490Z,2.87
2018-06-23T08:16:17.803Z,2.80
2018-06-23T08:18:47.528Z,3.00
2018-06-23T08:21:17.449Z,3.00
2018-06-23T08:23:47.347Z,3.03
2018-06-23T08:26:17.878Z,3.33
2018-06-23T08:28:49.102Z,3.20
2018-06-23T08:31:19.071Z,3.33
2018-06-23T08:33:49.765Z,3.10
2018-06-23T08:36:19.839Z,3.23
2018-06-23T08:38:49.402Z,2.77
2018-06-23T08:41:19.558Z,2.90
2018-06-23T08:43:49.660Z,3.00
2018-06-23T08:46:19.551Z,2.50
2018-06-23T08:48:52.265Z,2.67
2018-06-23T08:51:23.750Z,2.87
2018-06-23T08:53:53.405Z,2.97
2018-06-23T08:56:22.967Z,3.00
2018-06-23T08:58:52.961Z,3.10
2018-06-23T09:01:22.519Z,3.47
2018-06-23T09:03:52.887Z,2.60
2018-06-23T09:06:22.570Z,3.10
2018-06-23T09:08:52.309Z,2.67
2018-06-23T09:11:22.710Z,3.33
2018-06-23T09:13:52.804Z,3.07
2018-06-23T09:16:22.903Z,2.97
2018-06-23T09:18:52.392Z,2.90
2018-06-23T09:21:21.738Z,2.90
2018-06-23T09:23:52.291Z,2.90
2018-06-23T09:26:21.594Z,3.30
2018-06-23T09:28:51.427Z,3.70
2018-06-23T09:31:21.739Z,4.00
2018-06-23T09:33:52.282Z,3.43
2018-06-23T09:36:22.958Z,3.03
2018-06-23T09:38:53.626Z,2.83
2018-06-23T09:41:24.103Z,2.47
2018-06-23T09:43:54.515Z,2.70
2018-06-23T09:46:25.191Z,3.57
2018-06-23T09:48:54.669Z,3.60
2018-06-23T09:51:31.534Z,2.77
2018-06-23T09:54:01.022Z,2.90
2018-06-23T09:56:30.842Z,2.97
2018-06-23T09:59:00.114Z,2.97
2018-06-23T10:01:30.062Z,2.67
2018-06-23T10:04:02.356Z,2.70
2018-06-23T10:06:32.645Z,3.40
2018-06-23T10:09:02.900Z,3.07
2018-06-23T10:11:35.383Z,3.13
2018-06-23T10:14:06.027Z,2.60
2018-06-23T10:16:35.818Z,3.07
2018-06-23T10:19:06.942Z,2.90
2018-06-23T10:21:43.747Z,3.57
2018-06-23T10:24:14.330Z,3.77
2018-06-23T10:26:45.171Z,3.30
2018-06-23T10:29:26.075Z,3.60
2018-06-23T10:34:55.717Z,3.70
2018-06-23T10:37:25.447Z,3.80
2018-06-23T10:39:55.218Z,3.90
2018-06-23T10:42:24.519Z,3.30
2018-06-23T10:44:55.190Z,3.83
2018-06-23T10:47:25.776Z,2.97
2018-06-23T10:49:55.724Z,3.10
2018-06-23T10:52:26.643Z,2.83
2018-06-23T10:55:03.005Z,3.10
2018-06-23T10:57:33.450Z,3.20
2018-06-23T11:00:03.562Z,3.40
2018-06-23T11:02:34.272Z,3.53
2018-06-23T11:05:06.562Z,3.37
2018-06-23T11:07:36.799Z,3.43
2018-06-23T11:10:07.179Z,3.03
2018-06-23T11:12:36.674Z,2.53
2018-06-23T11:15:06.247Z,3.33
2018-06-23T11:17:36.832Z,2.90
2018-06-23T11:20:09.711Z,3.03
2018-06-23T11:22:40.617Z,2.87
2018-06-23T11:25:11.931Z,2.97
2018-06-23T11:27:45.323Z,3.27
2018-06-23T11:30:24.623Z,4.00
2018-06-23T11:32:54.922Z,6.23
2018-06-23T11:35:25.887Z,4.23
2018-06-23T11:37:56.081Z,4.43
2018-06-23T11:40:27.708Z,4.20
2018-06-23T11:42:59.356Z,4.20
2018-06-23T11:45:31.038Z,4.17
2018-06-23T11:48:01.913Z,3.80
2018-06-23T11:50:38.154Z,3.73
2018-06-23T11:53:09.902Z,4.07
2018-06-23T11:55:40.496Z,3.70
2018-06-23T11:58:18.403Z,3.57
2018-06-23T12:00:48.389Z,3.37
2018-06-23T12:03:20.178Z,3.73
2018-06-23T12:05:55.575Z,3.63
2018-06-23T12:08:28.293Z,3.50
2018-06-23T12:10:58.199Z,3.47
2018-06-23T12:13:30.642Z,3.53
2018-06-23T12:16:00.389Z,4.10
2018-06-23T12:18:31.682Z,3.17
2018-06-23T12:21:01.631Z,3.27
2018-06-23T12:23:31.728Z,4.93
2018-06-23T12:26:02.746Z,5.33
2018-06-23T12:28:33.561Z,4.97
2018-06-23T12:31:03.717Z,4.43
2018-06-23T12:33:33.173Z,3.90
2018-06-23T12:36:03.507Z,3.67
2018-06-23T12:38:33.833Z,2.93
2018-06-23T12:41:04.555Z,3.13
2018-06-23T12:43:34.219Z,2.83
2018-06-23T12:46:04.479Z,2.53
2018-06-23T12:48:34.472Z,2.70
2018-06-23T12:51:04.024Z,3.20
2018-06-23T12:53:34.570Z,2.50
2018-06-23T12:56:04.110Z,2.80
2018-06-23T12:58:33.984Z,2.53
2018-06-23T13:01:04.990Z,2.40
2018-06-23T13:03:34.750Z,2.60
2018-06-23T13:06:04.635Z,2.40
2018-06-23T13:08:34.400Z,2.70
2018-06-23T13:11:05.081Z,2.07
2018-06-23T13:13:35.291Z,2.77
2018-06-23T13:16:05.855Z,2.40
2018-06-23T13:18:35.940Z,3.23
2018-06-23T13:21:06.135Z,2.90
2018-06-23T13:23:35.795Z,2.70
2018-06-23T13:26:05.987Z,2.37
2018-06-23T13:28:36.656Z,2.60
2018-06-23T13:31:08.231Z,2.33
2018-06-23T13:33:37.914Z,2.40
2018-06-23T13:36:07.932Z,2.77
2018-06-23T13:38:40.402Z,2.43
2018-06-23T13:41:11.346Z,2.50
2018-06-23T13:43:41.347Z,2.33
2018-06-23T13:46:10.687Z,2.40
2018-06-23T13:48:41.499Z,2.33
2018-06-23T13:51:11.367Z,2.57
2018-06-23T13:53:40.950Z,1.87
2018-06-23T13:56:10.340Z,2.20
2018-06-23T13:58:40.032Z,2.10
2018-06-23T14:01:10.271Z,2.17
2018-06-23T14:03:41.207Z,2.07
2018-06-23T14:06:12.323Z,2.17
2018-06-23T14:08:42.414Z,1.77
2018-06-23T14:11:12.900Z,1.90
2018-06-23T14:13:42.171Z,2.30
2018-06-23T14:16:12.528Z,1.87
2018-06-23T14:18:43.231Z,2.03
2018-06-23T14:21:14.368Z,2.13
2018-06-23T14:23:44.566Z,2.37
2018-06-23T14:26:14.387Z,2.23
2018-06-23T14:28:44.549Z,1.93
2018-06-23T14:31:15.431Z,1.97
2018-06-23T14:33:45.876Z,2.07
2018-06-23T14:36:15.898Z,2.37
2018-06-23T14:38:49.519Z,1.60
2018-06-23T14:41:18.803Z,2.23
2018-06-23T14:43:49.876Z,2.13
2018-06-23T14:46:19.870Z,1.90
2018-06-23T14:48:49.554Z,1.90
2018-06-23T14:51:23.571Z,1.70
2018-06-23T14:53:53.072Z,1.70
2018-06-23T14:56:23.811Z,1.80
2018-06-23T14:58:54.270Z,1.90
2018-06-23T15:01:25.624Z,1.93
2018-06-23T15:03:57.919Z,2.00
2018-06-23T15:06:27.531Z,2.23
2018-06-23T15:09:02.402Z,2.27
2018-06-23T15:11:47.823Z,1.73
2018-06-23T15:14:18.329Z,1.80
2018-06-23T15:16:48.718Z,1.73
2018-06-23T15:19:22.647Z,1.70
2018-06-23T15:21:53.778Z,1.97
2018-06-23T15:24:24.574Z,2.37
2018-06-23T15:26:55.454Z,1.90
2018-06-23T15:29:25.543Z,2.13
2018-06-23T15:31:55.275Z,2.13
2018-06-23T15:34:29.758Z,2.10
2018-06-23T15:36:59.948Z,2.27
2018-06-23T15:39:30.552Z,2.10
2018-06-23T15:41:59.539Z,1.77
2018-06-23T15:44:30.318Z,2.23
2018-06-23T15:47:00.342Z,1.90
2018-06-23T15:49:29.604Z,2.10
2018-06-23T15:52:00.097Z,1.83
2018-06-23T15:54:30.758Z,1.43
2018-06-23T15:57:00.187Z,1.80
2018-06-23T15:59:29.705Z,1.77
2018-06-23T16:01:59.527Z,1.93
2018-06-23T16:04:30.253Z,1.87
2018-06-23T16:07:05.661Z,1.80
2018-06-23T16:09:51.248Z,1.87
2018-06-23T16:12:30.033Z,1.60
2018-06-23T16:15:00.688Z,1.77
2018-06-23T16:17:31.535Z,2.10
2018-06-23T16:20:02.534Z,1.93
2018-06-23T16:22:33.398Z,1.67
2018-06-23T16:25:04.671Z,1.33
2018-06-23T16:27:34.660Z,1.83
2018-06-23T16:30:05.318Z,1.60
2018-06-23T16:32:35.452Z,1.60
2018-06-23T16:35:05.709Z,1.63
2018-06-23T16:37:41.501Z,1.80
2018-06-23T16:40:12.804Z,1.80
2018-06-23T16:42:45.999Z,1.60
2018-06-23T16:45:15.624Z,1.70
2018-06-23T16:47:45.719Z,1.87
2018-06-23T16:50:15.580Z,1.60
2018-06-23T16:52:45.427Z,1.87
2018-06-23T16:55:16.334Z,2.10
2018-06-23T16:57:47.004Z,1.57
2018-06-23T17:00:19.164Z,1.60
2018-06-23T17:02:48.480Z,1.40
2018-06-23T17:05:18.660Z,1.67
2018-06-23T17:07:48.895Z,2.17
2018-06-23T17:10:19.083Z,1.50
2018-06-23T17:12:54.172Z,1.80
2018-06-23T17:15:23.727Z,1.57
2018-06-23T17:17:54.348Z,1.90
2018-06-23T17:20:30.571Z,1.80
2018-06-23T17:23:01.939Z,2.60
2018-06-23T17:25:31.227Z,3.97
2018-06-23T17:34:04.379Z,2.20
2018-06-23T17:39:50.907Z,2.57
2018-06-23T17:45:27.127Z,2.20
2018-06-23T17:47:57.734Z,2.30
2018-06-23T17:50:29.697Z,2.17
2018-06-23T17:53:00.971Z,2.00
2018-06-23T17:55:32.967Z,2.20
2018-06-23T17:58:16.784Z,2.00
2018-06-23T18:00:47.667Z,2.30
2018-06-23T18:03:19.294Z,1.77
2018-06-23T18:05:49.096Z,2.03
2018-06-23T18:08:19.330Z,1.30
2018-06-23T18:10:50.177Z,1.93
2018-06-23T18:13:30.823Z,2.00
2018-06-23T18:19:37.216Z,1.77
2018-06-23T18:36:20.240Z,1.50
2018-06-23T18:55:09.550Z,1.97
2018-06-23T18:58:24.127Z,1.97
2018-06-23T19:39:07.839Z,1.40
2018-06-23T19:47:40.715Z,1.53
2018-06-23T19:50:12.650Z,1.23
2018-06-23T20:08:50.311Z,1.50
2018-06-23T20:20:33.531Z,1.40
2018-06-23T20:23:11.438Z,1.20
2018-06-23T22:08:44.380Z,1.67
2018-06-23T23:29:46.418Z,1.70
2018-06-23T23:32:20.007Z,1.30
2018-06-23T23:34:50.003Z,1.87
2018-06-23T23:37:27.251Z,1.90
2018-06-23T23:40:03.309Z,1.90
2018-06-23T23:42:38.697Z,1.73
2018-06-23T23:45:12.719Z,1.80
